Time;durP1;ratioP1;P1;durP2;ratioP2;P2;SDS_P1;SDS_P2;PMS_P1;PMS_P2;Temp;Humidity;BMP_temperature;BMP_pressure;BME280_temperature;BME280_humidity;BME280_pressure;Samples;Min_cycle;Max_cycle;Signal;HPM_P1;HPM_P2
2024/01/02 06:00:36;;;;;;;;;;;;;;;;;;5915455;23;19961;-42
2024/01/02 06:03:02;;;;;;;;;;;;;;;;;;4989312;28;20337;-42
2024/01/02 06:05:28;;;;;;;;;;;;;;;;;;4989516;28;19910;-43
2024/01/02 06:07:54;;;;;;;;;;;;;;;;;;4992837;28;19917;-43
2024/01/02 06:10:20;;;;;;;;;;;;;;;;;;4993051;28;19964;-44
2024/01/02 06:12:45;;;;;;;;;;;;;;;;;;4992918;28;19914;-42
2024/01/02 06:15:11;;;;;;;;;;;;;;;;;;4992714;28;20385;-44
2024/01/02 06:17:37;;;;;;;;;;;;;;;;;;4992628;28;19914;-46
2024/01/02 06:20:04;;;;;;;;;;;;;;;;;;4992973;28;20297;-43
2024/01/02 06:22:30;;;;;;;;;;;;;;;;;;4992694;28;20344;-43
2024/01/02 06:24:56;;;;;;;;;;;;;;;;;;4992717;28;19914;-43
2024/01/02 06:27:22;;;;;;;;;;;;;;;;;;4992757;28;19910;-43
2024/01/02 06:29:48;;;;;;;;;;;;;;;;;;4992419;28;20399;-43
2024/01/02 06:32:14;;;;;;;;;;;;;;;;;;4992560;28;19920;-42
2024/01/02 06:34:40;;;;;;;;;;;;;;;;;;4992183;28;19910;-42
2024/01/02 06:37:06;;;;;;;;;;;;;;;;;;4992567;28;19920;-43
2024/01/02 06:39:31;;;;;;;;;;;;;;;;;;4992470;28;19917;-43
2024/01/02 06:41:57;;;;;;;;;;;;;;;;;;4992408;28;19910;-44
2024/01/02 06:44:23;;;;;;;;;;;;;;;;;;4992036;28;19997;-44
2024/01/02 06:46:49;;;;;;;;;;;;;;;;;;4992064;28;19910;-45
2024/01/02 06:49:15;;;;;;;;;;;;;;;;;;4992011;28;20000;-44
2024/01/02 06:51:41;;;;;;;;;;;;;;;;;;4992264;28;19914;-44
2024/01/02 06:54:07;;;;;;;;;;;;;;;;;;4990561;28;19972;-43
2024/01/02 06:56:33;;;;;;;;;;;;;;;;;;4990164;28;19972;-42
2024/01/02 06:58:59;;;;;;;;;;;;;;;;;;4973212;28;19952;-45
2024/01/02 07:01:24;;;;;;;;;;;;;;;;;;4980669;28;20013;-47
2024/01/02 07:03:50;;;;;;;;;;;;;;;;;;4992959;28;19910;-47
2024/01/02 07:06:17;;;;;;;;;;;;;;;;;;4993143;28;20614;-46
2024/01/02 07:08:43;;;;;;;;;;;;;;;;;;4992502;28;19973;-46
2024/01/02 07:11:09;;;;;;;;;;;;;;;;;;4993073;28;19909;-46
2024/01/02 07:13:35;;;;;;;;;;;;;;;;;;4992712;28;19997;-49
2024/01/02 07:16:01;;;;;;;;;;;;;;;;;;4991180;28;19921;-48
2024/01/02 07:18:29;;;;;;;;;;;;;;;;;;4991472;28;19910;-47
2024/01/02 07:20:54;;;;;;;;;;;;;;;;;;4992886;28;19910;-48
2024/01/02 07:23:20;;;;;;;;;;;;;;;;;;4992894;28;19910;-48
2024/01/02 07:25:46;;;;;;;;;;;;;;;;;;4992754;28;20379;-45
2024/01/02 07:28:12;;;;;;;;;;;;;;;;;;4992588;28;19917;-47
2024/01/02 07:30:38;;;;;;;;;;;;;;;;;;4992454;28;20312;-47
2024/01/02 07:33:04;;;;;;;;;;;;;;;;;;4992115;28;19963;-48
2024/01/02 07:35:30;;;;;;;;;;;;;;;;;;4992116;28;19920;-47
2024/01/02 07:37:56;;;;;;;;;;;;;;;;;;4992602;28;19937;-46
2024/01/02 07:40:22;;;;;;;;;;;;;;;;;;4992133;28;19910;-46
2024/01/02 07:42:47;;;;;;;;;;;;;;;;;;4991158;28;19936;-47
2024/01/02 07:45:13;;;;;;;;;;;;;;;;;;4992242;28;20034;-46
2024/01/02 07:47:39;;;;;;;;;;;;;;;;;;4992001;28;19910;-46
2024/01/02 07:50:05;;;;;;;;;;;;;;;;;;4992483;28;20520;-48
2024/01/02 07:52:31;;;;;;;;;;;;;;;;;;4991701;28;19917;-47
2024/01/02 07:54:57;;;;;;;;;;;;;;;;;;4992146;28;19910;-48
2024/01/02 07:57:25;;;;;;;;;;;;;;;;;;4991966;28;19918;-49
2024/01/02 07:59:51;;;;;;;;;;;;;;;;;;4988045;28;20004;-46
2024/01/02 08:02:16;;;;;;;;;;;;;;;;;;4992574;28;20005;-45
2024/01/02 08:04:42;;;;;;;;;;;;;;;;;;4992276;28;19910;-45
2024/01/02 08:07:08;;;;;;;;;;;;;;;;;;4991983;28;19910;-45
2024/01/02 08:09:34;;;;;;;;;;;;;;;;;;4990247;28;20309;-45
2024/01/02 08:12:00;;;;;;;;;;;;;;;;;;4992336;28;19969;-46
2024/01/02 08:14:26;;;;;;;;;;;;;;;;;;4977194;28;19917;-44
2024/01/02 08:16:52;;;;;;;;;;;;;;;;;;4988007;28;20400;-46
2024/01/02 08:19:18;;;;;;;;;;;;;;;;;;4992588;28;19914;-45
2024/01/02 08:21:44;;;;;;;;;;;;;;;;;;4992601;28;19913;-46
2024/01/02 08:24:09;;;;;;;;;;;;;;;;;;4992594;28;20023;-50
2024/01/02 08:26:36;;;;;;;;;;;;;;;;;;4992467;28;19910;-46
2024/01/02 08:29:02;;;;;;;;;;;;;;;;;;4990093;28;19917;-45
2024/01/02 08:31:28;;;;;;;;;;;;;;;;;;4985230;28;19969;-47
2024/01/02 08:33:55;;;;;;;;;;;;;;;;;;4972880;28;19914;-45
2024/01/02 08:36:21;;;;;;;;;;;;;;;;;;4985980;28;20008;-45
2024/01/02 08:38:47;;;;;;;;;;;;;;;;;;4991458;28;20460;-47
2024/01/02 08:41:13;;;;;;;;;;;;;;;;;;4991941;28;20081;-45
2024/01/02 08:43:39;;;;;;;;;;;;;;;;;;4990298;28;19909;-45
2024/01/02 08:46:05;;;;;;;;;;;;;;;;;;4992316;28;19910;-44
2024/01/02 08:48:30;;;;;;;;;;;;;;;;;;4992296;28;20015;-46
2024/01/02 08:50:56;;;;;;;;;;;;;;;;;;5011542;28;20000;-45
2024/01/02 08:53:22;;;;;;;;;;;;;;;;;;5006469;28;20435;-45
2024/01/02 08:55:48;;;;;;;;;;;;;;;;;;4992043;28;19921;-47
2024/01/02 08:58:14;;;;;;;;;;;;;;;;;;4991992;28;19952;-46
2024/01/02 09:00:40;;;;;;;;;;;;;;;;;;4991937;28;19993;-44
2024/01/02 09:03:06;;;;;;;;;;;;;;;;;;4991932;28;19909;-46
2024/01/02 09:05:32;;;;;;;;;;;;;;;;;;4991993;28;19910;-45
2024/01/02 09:07:59;;;;;;;;;;;;;;;;;;4991250;28;19965;-45
2024/01/02 09:10:25;;;;;;;;;;;;;;;;;;4991190;28;19946;-47
2024/01/02 09:12:51;;;;;;;;;;;;;;;;;;4991735;28;19910;-49
2024/01/02 09:15:17;;;;;;;;;;;;;;;;;;4992035;28;20284;-47
2024/01/02 09:17:43;;;;;;;;;;;;;;;;;;4991726;28;19914;-45
2024/01/02 09:20:11;;;;;;;;;;;;;;;;;;4991879;28;19910;-47
2024/01/02 09:22:37;;;;;;;;;;;;;;;;;;4990401;28;19913;-45
2024/01/02 09:25:02;;;;;;;;;;;;;;;;;;4991444;28;20274;-47
2024/01/02 09:27:28;;;;;;;;;;;;;;;;;;4991637;28;19953;-44
2024/01/02 09:29:54;;;;;;;;;;;;;;;;;;4991623;28;19910;-44
2024/01/02 09:32:20;;;;;;;;;;;;;;;;;;5003616;28;19914;-45
2024/01/02 09:34:46;;;;;;;;;;;;;;;;;;4991718;28;19909;-44
2024/01/02 09:37:12;;;;;;;;;;;;;;;;;;4999355;28;19913;-44
2024/01/02 09:39:38;;;;;;;;;;;;;;;;;;5011013;28;19916;-46
2024/01/02 09:42:04;;;;;;;;;;;;;;;;;;5013731;28;19920;-45
2024/01/02 09:44:30;;;;;;;;;;;;;;;;;;5015155;28;19910;-44
2024/01/02 09:46:55;;;;;;;;;;;;;;;;;;5014756;28;19909;-45
2024/01/02 09:49:21;;;;;;;;;;;;;;;;;;5014787;28;19909;-45
2024/01/02 09:51:47;;;;;;;;;;;;;;;;;;5014728;28;19910;-46
2024/01/02 09:54:13;;;;;;;;;;;;;;;;;;5002817;28;19914;-46
2024/01/02 09:56:39;;;;;;;;;;;;;;;;;;4995111;28;20393;-44
2024/01/02 09:59:05;;;;;;;;;;;;;;;;;;4994975;28;19914;-43
2024/01/02 10:01:31;;;;;;;;;;;;;;;;;;4994751;28;20388;-48
2024/01/02 10:03:57;;;;;;;;;;;;;;;;;;4994221;28;19914;-45
2024/01/02 10:06:22;;;;;;;;;;;;;;;;;;4994214;28;20373;-47
2024/01/02 10:08:48;;;;;;;;;;;;;;;;;;4992981;28;19916;-45
2024/01/02 10:11:14;;;;;;;;;;;;;;;;;;4994302;28;19956;-44
2024/01/02 10:13:40;;;;;;;;;;;;;;;;;;4993225;28;19910;-45
2024/01/02 10:16:06;;;;;;;;;;;;;;;;;;4993696;28;20017;-44
2024/01/02 10:18:32;;;;;;;;;;;;;;;;;;4994007;28;20336;-44
2024/01/02 10:20:58;;;;;;;;;;;;;;;;;;4993096;28;19917;-45
2024/01/02 10:23:24;;;;;;;;;;;;;;;;;;4992512;28;19945;-45
2024/01/02 10:25:50;;;;;;;;;;;;;;;;;;4992552;28;19914;-47
2024/01/02 10:28:16;;;;;;;;;;;;;;;;;;4994201;28;20277;-45
2024/01/02 10:30:41;;;;;;;;;;;;;;;;;;4994641;28;19909;-44
2024/01/02 10:33:07;;;;;;;;;;;;;;;;;;4994477;28;19914;-44
2024/01/02 10:35:33;;;;;;;;;;;;;;;;;;4994336;28;19965;-47
2024/01/02 10:37:59;;;;;;;;;;;;;;;;;;4993965;28;19910;-43
2024/01/02 10:40:25;;;;;;;;;;;;;;;;;;4992863;28;19921;-46
2024/01/02 10:42:51;;;;;;;;;;;;;;;;;;4994312;28;19957;-45
2024/01/02 10:45:18;;;;;;;;;;;;;;;;;;4994697;28;20324;-47
2024/01/02 10:47:44;;;;;;;;;;;;;;;;;;4994416;28;20381;-45
2024/01/02 10:50:09;;;;;;;;;;;;;;;;;;4994174;28;19964;-46
2024/01/02 10:52:35;;;;;;;;;;;;;;;;;;4993586;28;19910;-44
2024/01/02 10:55:01;;;;;;;;;;;;;;;;;;4994166;28;19910;-46
2024/01/02 10:57:27;;;;;;;;;;;;;;;;;;4994117;28;20466;-46
2024/01/02 10:59:54;;;;;;;;;;;;;;;;;;4994131;28;19914;-45
2024/01/02 11:02:20;;;;;;;;;;;;;;;;;;4993780;28;19976;-44
2024/01/02 11:04:46;;;;;;;;;;;;;;;;;;4993991;28;19910;-46
2024/01/02 11:07:12;;;;;;;;;;;;;;;;;;4993713;28;19916;-47
2024/01/02 11:09:38;;;;;;;;;;;;;;;;;;4993687;28;19956;-47
2024/01/02 11:12:03;;;;;;;;;;;;;;;;;;4993632;28;19914;-45
2024/01/02 11:14:29;;;;;;;;;;;;;;;;;;4993842;28;20379;-47
2024/01/02 11:16:56;;;;;;;;;;;;;;;;;;4989911;28;19925;-46
2024/01/02 11:19:22;;;;;;;;;;;;;;;;;;4990002;28;19941;-45
2024/01/02 11:21:49;;;;;;;;;;;;;;;;;;4990523;28;19914;-45
2024/01/02 11:24:15;;;;;;;;;;;;;;;;;;4998489;28;19910;-46
2024/01/02 11:26:41;;;;;;;;;;;;;;;;;;4991827;28;20020;-45
2024/01/02 11:29:07;;;;;;;;;;;;;;;;;;4990915;28;19910;-43
2024/01/02 11:31:33;;;;;;;;;;;;;;;;;;4990621;28;19918;-45
2024/01/02 11:33:59;;;;;;;;;;;;;;;;;;4991037;28;19960;-46
2024/01/02 11:36:28;;;;;;;;;;;;;;;;;;4990794;28;19944;-45
2024/01/02 11:38:53;;;;;;;;;;;;;;;;;;4990943;28;19957;-46
2024/01/02 11:41:19;;;;;;;;;;;;;;;;;;4990896;28;20323;-44
2024/01/02 11:43:45;;;;;;;;;;;;;;;;;;4990904;28;19910;-45
2024/01/02 11:46:11;;;;;;;;;;;;;;;;;;4991692;28;19937;-45
2024/01/02 11:48:37;;;;;;;;;;;;;;;;;;4990007;28;20421;-44
2024/01/02 11:51:05;;;;;;;;;;;;;;;;;;4989543;28;19917;-44
2024/01/02 11:53:31;;;;;;;;;;;;;;;;;;4989770;28;19997;-45
2024/01/02 11:55:57;;;;;;;;;;;;;;;;;;4989862;28;20013;-44
2024/01/02 11:58:23;;;;;;;;;;;;;;;;;;4989402;28;19988;-44
2024/01/02 12:00:49;;;;;;;;;;;;;;;;;;4988214;28;20332;-44
2024/01/02 12:03:14;;;;;;;;;;;;;;;;;;4988994;28;19910;-43
2024/01/02 12:05:40;;;;;;;;;;;;;;;;;;4990073;28;20396;-44
2024/01/02 12:08:07;;;;;;;;;;;;;;;;;;4988378;28;20009;-44
2024/01/02 12:10:33;;;;;;;;;;;;;;;;;;4989310;28;19914;-44
2024/01/02 12:13:02;;;;;;;;;;;;;;;;;;4986949;28;19949;-44
2024/01/02 12:15:28;;;;;;;;;;;;;;;;;;4989735;28;20416;-44
2024/01/02 12:17:54;;;;;;;;;;;;;;;;;;4989632;28;19961;-45
2024/01/02 12:20:20;;;;;;;;;;;;;;;;;;4985468;28;20296;-44
2024/01/02 12:22:46;;;;;;;;;;;;;;;;;;4988210;28;19921;-45
2024/01/02 12:25:11;;;;;;;;;;;;;;;;;;4990723;28;19916;-44
2024/01/02 12:27:37;;;;;;;;;;;;;;;;;;4990323;28;20599;-46
2024/01/02 12:30:08;;;;;;;;;;;;;;;;;;4989146;28;20388;-45
2024/01/02 12:32:34;;;;;;;;;;;;;;;;;;4989056;28;19924;-44
2024/01/02 12:35:00;;;;;;;;;;;;;;;;;;4989965;28;20000;-44
2024/01/02 12:37:27;;;;;;;;;;;;;;;;;;4989928;28;20561;-44
2024/01/02 12:39:53;;;;;;;;;;;;;;;;;;4989970;28;20336;-45
2024/01/02 12:42:21;;;;;;;;;;;;;;;;;;4980309;28;19918;-45
2024/01/02 12:44:47;;;;;;;;;;;;;;;;;;4989083;28;20324;-46
2024/01/02 12:47:13;;;;;;;;;;;;;;;;;;4990144;28;19921;-47
2024/01/02 12:49:39;;;;;;;;;;;;;;;;;;4989780;28;19961;-48
2024/01/02 12:52:05;;;;;;;;;;;;;;;;;;4988895;28;19951;-50
2024/01/02 12:54:30;;;;;;;;;;;;;;;;;;4988718;28;19953;-47
2024/01/02 12:56:57;;;;;;;;;;;;;;;;;;4988034;28;20381;-49
2024/01/02 12:59:22;;;;;;;;;;;;;;;;;;4987373;28;19914;-48
2024/01/02 13:01:49;;;;;;;;;;;;;;;;;;4981858;28;20270;-48
2024/01/02 13:04:14;;;;;;;;;;;;;;;;;;4970991;28;20380;-50
2024/01/02 13:06:40;;;;;;;;;;;;;;;;;;4987642;28;20015;-51
2024/01/02 13:09:07;;;;;;;;;;;;;;;;;;4998377;28;19914;-49
2024/01/02 13:11:33;;;;;;;;;;;;;;;;;;4987471;28;20084;-49
2024/01/02 13:13:59;;;;;;;;;;;;;;;;;;4991279;28;19913;-47
2024/01/02 13:16:25;;;;;;;;;;;;;;;;;;5001078;28;19921;-48
2024/01/02 13:18:51;;;;;;;;;;;;;;;;;;4996157;28;20416;-49
2024/01/02 13:21:18;;;;;;;;;;;;;;;;;;5000086;28;19990;-49
2024/01/02 13:23:44;;;;;;;;;;;;;;;;;;4991225;28;19910;-47
2024/01/02 13:26:10;;;;;;;;;;;;;;;;;;4988575;28;19928;-49
2024/01/02 13:28:36;;;;;;;;;;;;;;;;;;4974259;28;19917;-47
2024/01/02 13:31:02;;;;;;;;;;;;;;;;;;4973969;28;19914;-51
2024/01/02 13:33:28;;;;;;;;;;;;;;;;;;4990787;28;19961;-49
2024/01/02 13:35:54;;;;;;;;;;;;;;;;;;4991982;28;20554;-48
2024/01/02 13:38:20;;;;;;;;;;;;;;;;;;4992430;28;19910;-51
2024/01/02 13:40:46;;;;;;;;;;;;;;;;;;4991841;28;19964;-48
2024/01/02 13:43:13;;;;;;;;;;;;;;;;;;4986789;28;20004;-48
2024/01/02 13:45:40;;;;;;;;;;;;;;;;;;4988362;28;19953;-48
2024/01/02 13:48:06;;;;;;;;;;;;;;;;;;4992495;28;19922;-48
2024/01/02 13:50:32;;;;;;;;;;;;;;;;;;4991109;28;19914;-49
2024/01/02 13:52:58;;;;;;;;;;;;;;;;;;4994045;28;19941;-47
2024/01/02 13:55:24;;;;;;;;;;;;;;;;;;4993501;28;19950;-50
2024/01/02 13:57:51;;;;;;;;;;;;;;;;;;4999907;28;19918;-47
2024/01/02 14:00:17;;;;;;;;;;;;;;;;;;4985437;28;20001;-47
2024/01/02 14:02:43;;;;;;;;;;;;;;;;;;5001413;28;20417;-47
2024/01/02 14:05:09;;;;;;;;;;;;;;;;;;5010633;28;19913;-51
2024/01/02 14:07:34;;;;;;;;;;;;;;;;;;4993009;28;19918;-48
2024/01/02 14:10:00;;;;;;;;;;;;;;;;;;4991809;28;19914;-46
2024/01/02 14:12:26;;;;;;;;;;;;;;;;;;4990304;28;19965;-47
2024/01/02 14:14:52;;;;;;;;;;;;;;;;;;4992873;28;19952;-50
2024/01/02 14:17:18;;;;;;;;;;;;;;;;;;4988942;28;19918;-48
2024/01/02 14:19:44;;;;;;;;;;;;;;;;;;4992192;28;19917;-51
2024/01/02 14:22:10;;;;;;;;;;;;;;;;;;4988814;28;19913;-47
2024/01/02 14:24:36;;;;;;;;;;;;;;;;;;4973032;28;20395;-50
2024/01/02 14:27:04;;;;;;;;;;;;;;;;;;4999916;28;19922;-49
2024/01/02 14:29:30;;;;;;;;;;;;;;;;;;4988940;28;19940;-50
2024/01/02 14:31:56;;;;;;;;;;;;;;;;;;5006137;28;20400;-48
2024/01/02 14:34:22;;;;;;;;;;;;;;;;;;5003925;28;20392;-50
2024/01/02 14:36:48;;;;;;;;;;;;;;;;;;4993691;28;19921;-49
2024/01/02 14:39:14;;;;;;;;;;;;;;;;;;4999718;28;19920;-48
2024/01/02 14:41:40;;;;;;;;;;;;;;;;;;5011612;28;20454;-48
2024/01/02 14:44:06;;;;;;;;;;;;;;;;;;4990883;28;19998;-49
2024/01/02 14:46:32;;;;;;;;;;;;;;;;;;4995675;28;19913;-50
2024/01/02 14:48:58;;;;;;;;;;;;;;;;;;5000914;28;19940;-48
2024/01/02 14:51:24;;;;;;;;;;;;;;;;;;4992082;28;19921;-47
2024/01/02 14:53:50;;;;;;;;;;;;;;;;;;4991741;28;19910;-51
2024/01/02 14:56:16;;;;;;;;;;;;;;;;;;4989660;28;19925;-50
2024/01/02 14:58:42;;;;;;;;;;;;;;;;;;4991679;28;19917;-52
2024/01/02 15:01:08;;;;;;;;;;;;;;;;;;5008420;28;19917;-51
2024/01/02 15:03:34;;;;;;;;;;;;;;;;;;5000062;28;19917;-49
2024/01/02 15:05:59;;;;;;;;;;;;;;;;;;5009566;28;19910;-48
2024/01/02 15:08:26;;;;;;;;;;;;;;;;;;4999826;28;20300;-52
2024/01/02 15:10:52;;;;;;;;;;;;;;;;;;5000517;28;19910;-49
2024/01/02 15:13:19;;;;;;;;;;;;;;;;;;4984113;28;19967;-50
2024/01/02 15:15:45;;;;;;;;;;;;;;;;;;4993995;28;19913;-49
2024/01/02 15:18:11;;;;;;;;;;;;;;;;;;4991468;28;20056;-50
2024/01/02 15:20:36;;;;;;;;;;;;;;;;;;4989670;28;19910;-50
2024/01/02 15:23:02;;;;;;;;;;;;;;;;;;4990365;28;19964;-49
2024/01/02 15:25:29;;;;;;;;;;;;;;;;;;4994807;28;19914;-50
2024/01/02 15:27:55;;;;;;;;;;;;;;;;;;4992093;28;20422;-51
2024/01/02 15:30:20;;;;;;;;;;;;;;;;;;4989686;28;19913;-49
2024/01/02 15:32:47;;;;;;;;;;;;;;;;;;4993198;28;19914;-52
2024/01/02 15:35:15;;;;;;;;;;;;;;;;;;4988821;28;19921;-50
2024/01/02 15:37:41;;;;;;;;;;;;;;;;;;4992256;28;20304;-48
2024/01/02 15:40:08;;;;;;;;;;;;;;;;;;4993131;28;19914;-51
2024/01/02 15:42:34;;;;;;;;;;;;;;;;;;4988957;28;20012;-49
2024/01/02 15:45:00;;;;;;;;;;;;;;;;;;4989772;28;20033;-49
2024/01/02 15:47:25;;;;;;;;;;;;;;;;;;5010487;28;19920;-48
2024/01/02 15:49:51;;;;;;;;;;;;;;;;;;4985713;28;19916;-51
2024/01/02 15:52:17;;;;;;;;;;;;;;;;;;4988548;28;19949;-50
2024/01/02 15:54:43;;;;;;;;;;;;;;;;;;4989246;28;19939;-50
2024/01/02 15:57:09;;;;;;;;;;;;;;;;;;4991298;28;19964;-49
2024/01/02 15:59:36;;;;;;;;;;;;;;;;;;4989351;28;19909;-49
2024/01/02 16:02:03;;;;;;;;;;;;;;;;;;4987271;28;20108;-47
2024/01/02 16:04:29;;;;;;;;;;;;;;;;;;4988889;28;19914;-48
2024/01/02 16:06:55;;;;;;;;;;;;;;;;;;4988545;28;19910;-46
2024/01/02 16:09:21;;;;;;;;;;;;;;;;;;4989221;28;19956;-49
2024/01/02 16:11:47;;;;;;;;;;;;;;;;;;4989137;28;19909;-50
2024/01/02 16:14:13;;;;;;;;;;;;;;;;;;4987704;28;20000;-49
2024/01/02 16:16:39;;;;;;;;;;;;;;;;;;4987743;28;19965;-47
2024/01/02 16:19:05;;;;;;;;;;;;;;;;;;4989709;28;19936;-47
2024/01/02 16:21:31;;;;;;;;;;;;;;;;;;4989335;28;19914;-46
2024/01/02 16:23:57;;;;;;;;;;;;;;;;;;4988996;28;19914;-47
2024/01/02 16:26:23;;;;;;;;;;;;;;;;;;4986704;28;19924;-50
2024/01/02 16:28:49;;;;;;;;;;;;;;;;;;4989082;28;19936;-47
2024/01/02 16:31:15;;;;;;;;;;;;;;;;;;4988373;28;19931;-46
2024/01/02 16:33:41;;;;;;;;;;;;;;;;;;4984054;28;19917;-46
2024/01/02 16:36:07;;;;;;;;;;;;;;;;;;4977761;28;20300;-48
2024/01/02 16:38:33;;;;;;;;;;;;;;;;;;4988996;28;20006;-47
2024/01/02 16:41:00;;;;;;;;;;;;;;;;;;4988984;28;20388;-47
2024/01/02 16:43:26;;;;;;;;;;;;;;;;;;4988608;28;19992;-50
2024/01/02 16:45:52;;;;;;;;;;;;;;;;;;4981235;28;20036;-46
2024/01/02 16:48:18;;;;;;;;;;;;;;;;;;4988340;28;19917;-46
2024/01/02 16:50:44;;;;;;;;;;;;;;;;;;4987676;28;19977;-49
2024/01/02 16:53:12;;;;;;;;;;;;;;;;;;4989202;28;20392;-49
2024/01/02 16:55:39;;;;;;;;;;;;;;;;;;4988431;28;19914;-46
2024/01/02 16:58:05;;;;;;;;;;;;;;;;;;4988613;28;19997;-48
2024/01/02 17:00:30;;;;;;;;;;;;;;;;;;4987283;28;20401;-47
2024/01/02 17:02:57;;;;;;;;;;;;;;;;;;4985500;28;19914;-47
2024/01/02 17:05:23;;;;;;;;;;;;;;;;;;4986521;28;19960;-47
2024/01/02 17:07:51;;;;;;;;;;;;;;;;;;4986831;28;20345;-47
2024/01/02 17:10:17;;;;;;;;;;;;;;;;;;4986797;28;19914;-49
2024/01/02 17:12:43;;;;;;;;;;;;;;;;;;4989691;28;19928;-45
2024/01/02 17:15:08;;;;;;;;;;;;;;;;;;4988328;28;20009;-47
2024/01/02 17:17:34;;;;;;;;;;;;;;;;;;4988964;28;19960;-51
2024/01/02 17:20:04;;;;;;;;;;;;;;;;;;4987022;28;19917;-47
2024/01/02 17:22:29;;;;;;;;;;;;;;;;;;4989739;28;19913;-49
2024/01/02 17:24:55;;;;;;;;;;;;;;;;;;4989341;28;19914;-47
2024/01/02 17:27:21;;;;;;;;;;;;;;;;;;4988599;28;19913;-46
2024/01/02 17:29:48;;;;;;;;;;;;;;;;;;4988176;28;19913;-46
2024/01/02 17:32:14;;;;;;;;;;;;;;;;;;4985823;28;20365;-47
2024/01/02 17:34:40;;;;;;;;;;;;;;;;;;4989854;28;19918;-47
2024/01/02 17:37:06;;;;;;;;;;;;;;;;;;4988639;28;20076;-48
2024/01/02 17:39:32;;;;;;;;;;;;;;;;;;4988691;28;20048;-46
2024/01/02 17:41:57;;;;;;;;;;;;;;;;;;4987717;28;19914;-45
2024/01/02 17:44:23;;;;;;;;;;;;;;;;;;4988269;28;19940;-45
2024/01/02 17:46:49;;;;;;;;;;;;;;;;;;4990095;28;19917;-47
2024/01/02 17:49:15;;;;;;;;;;;;;;;;;;4987283;28;19914;-44
2024/01/02 17:51:41;;;;;;;;;;;;;;;;;;4985995;28;20345;-47
2024/01/02 17:54:07;;;;;;;;;;;;;;;;;;4999513;28;19953;-46
2024/01/02 17:56:33;;;;;;;;;;;;;;;;;;4986471;28;19953;-46
2024/01/02 17:58:59;;;;;;;;;;;;;;;;;;4988602;28;19957;-45
2024/01/02 18:01:25;;;;;;;;;;;;;;;;;;4987942;28;19932;-49
2024/01/02 18:03:51;;;;;;;;;;;;;;;;;;5005956;28;20151;-46
2024/01/02 18:06:16;;;;;;;;;;;;;;;;;;5011798;28;20431;-46
2024/01/02 18:08:42;;;;;;;;;;;;;;;;;;4998450;28;19910;-47
2024/01/02 18:11:08;;;;;;;;;;;;;;;;;;5001114;28;19914;-46
2024/01/02 18:13:35;;;;;;;;;;;;;;;;;;4991134;28;19953;-46
2024/01/02 18:16:01;;;;;;;;;;;;;;;;;;4989034;28;20220;-46
2024/01/02 18:18:27;;;;;;;;;;;;;;;;;;4987963;28;20443;-48
2024/01/02 18:20:54;;;;;;;;;;;;;;;;;;4985782;28;19918;-47
2024/01/02 18:23:22;;;;;;;;;;;;;;;;;;4975630;28;20294;-49
2024/01/02 18:25:48;;;;;;;;;;;;;;;;;;4980590;28;19914;-46
2024/01/02 18:28:15;;;;;;;;;;;;;;;;;;4976398;28;19917;-47
2024/01/02 18:30:43;;;;;;;;;;;;;;;;;;4971922;28;19918;-50
2024/01/02 18:33:09;;;;;;;;;;;;;;;;;;5002859;28;20028;-48
2024/01/02 18:35:35;;;;;;;;;;;;;;;;;;4986182;28;20022;-47
2024/01/02 18:38:01;;;;;;;;;;;;;;;;;;4987033;28;19921;-50
2024/01/02 18:40:27;;;;;;;;;;;;;;;;;;5002617;28;19914;-46
2024/01/02 18:42:53;;;;;;;;;;;;;;;;;;4983729;28;19928;-46
2024/01/02 18:45:25;;;;;;;;;;;;;;;;;;4987031;28;19914;-46
2024/01/02 18:47:51;;;;;;;;;;;;;;;;;;4987744;28;20077;-48
2024/01/02 18:50:18;;;;;;;;;;;;;;;;;;4985545;28;20432;-44
2024/01/02 18:52:44;;;;;;;;;;;;;;;;;;4986529;28;19920;-45
2024/01/02 18:55:10;;;;;;;;;;;;;;;;;;4985248;28;19925;-46
2024/01/02 18:57:36;;;;;;;;;;;;;;;;;;4984506;28;19921;-49
2024/01/02 19:00:02;;;;;;;;;;;;;;;;;;4980247;28;19917;-45
2024/01/02 19:02:28;;;;;;;;;;;;;;;;;;4985929;28;19925;-48
2024/01/02 19:04:56;;;;;;;;;;;;;;;;;;4981626;28;20205;-46
2024/01/02 19:07:23;;;;;;;;;;;;;;;;;;4984289;28;20299;-49
2024/01/02 19:09:48;;;;;;;;;;;;;;;;;;4984985;28;19922;-47
2024/01/02 19:12:14;;;;;;;;;;;;;;;;;;4984526;28;19962;-46
2024/01/02 19:14:42;;;;;;;;;;;;;;;;;;4982949;28;19926;-49
2024/01/02 19:17:10;;;;;;;;;;;;;;;;;;4994107;28;20024;-46
2024/01/02 19:19:36;;;;;;;;;;;;;;;;;;4983658;28;20384;-47
2024/01/02 19:22:02;;;;;;;;;;;;;;;;;;4985430;28;21436;-48
2024/01/02 19:24:28;;;;;;;;;;;;;;;;;;4982953;28;19913;-46
2024/01/02 19:26:54;;;;;;;;;;;;;;;;;;4983314;28;19918;-45
2024/01/02 19:29:19;;;;;;;;;;;;;;;;;;4987656;28;19937;-45
2024/01/02 19:31:45;;;;;;;;;;;;;;;;;;4984893;28;19961;-46
2024/01/02 19:34:12;;;;;;;;;;;;;;;;;;4987104;28;20284;-45
2024/01/02 19:36:39;;;;;;;;;;;;;;;;;;4985052;28;20629;-46
2024/01/02 19:39:05;;;;;;;;;;;;;;;;;;4987531;28;20340;-44
2024/01/02 19:41:33;;;;;;;;;;;;;;;;;;4983414;28;20008;-45
2024/01/02 19:43:59;;;;;;;;;;;;;;;;;;4986912;28;19921;-49
2024/01/02 19:46:26;;;;;;;;;;;;;;;;;;4987393;28;19989;-49
2024/01/02 19:48:52;;;;;;;;;;;;;;;;;;4985051;28;20313;-45
2024/01/02 19:51:18;;;;;;;;;;;;;;;;;;4988616;28;20420;-49
2024/01/02 19:53:46;;;;;;;;;;;;;;;;;;4986895;28;20407;-46
2024/01/02 19:56:12;;;;;;;;;;;;;;;;;;4986828;28;20035;-48
2024/01/02 19:58:39;;;;;;;;;;;;;;;;;;4987728;28;19949;-45
2024/01/02 20:01:07;;;;;;;;;;;;;;;;;;4986299;28;19922;-48
2024/01/02 20:03:35;;;;;;;;;;;;;;;;;;4987576;28;19983;-46
2024/01/02 20:06:01;;;;;;;;;;;;;;;;;;4981708;28;20208;-47
2024/01/02 20:08:28;;;;;;;;;;;;;;;;;;4985837;28;19914;-45
2024/01/02 20:10:54;;;;;;;;;;;;;;;;;;4985068;28;19925;-45
2024/01/02 20:13:20;;;;;;;;;;;;;;;;;;4985590;28;19913;-45
2024/01/02 20:15:46;;;;;;;;;;;;;;;;;;4993438;28;20060;-44
2024/01/02 20:18:15;;;;;;;;;;;;;;;;;;4982819;28;19961;-45
2024/01/02 20:20:42;;;;;;;;;;;;;;;;;;4986734;28;19917;-44
2024/01/02 20:23:08;;;;;;;;;;;;;;;;;;4985176;28;19918;-44
2024/01/02 20:25:33;;;;;;;;;;;;;;;;;;4986932;28;19914;-45
2024/01/02 20:28:00;;;;;;;;;;;;;;;;;;4983777;28;20064;-44
2024/01/02 20:30:27;;;;;;;;;;;;;;;;;;4986366;28;20308;-44
2024/01/02 20:32:53;;;;;;;;;;;;;;;;;;4994678;28;19929;-44
2024/01/02 20:35:19;;;;;;;;;;;;;;;;;;4988602;28;19914;-44
2024/01/02 20:37:44;;;;;;;;;;;;;;;;;;4983299;28;20389;-45
2024/01/02 20:40:10;;;;;;;;;;;;;;;;;;4980954;28;19969;-44
2024/01/02 20:42:36;;;;;;;;;;;;;;;;;;4987374;28;19920;-44
2024/01/02 20:45:03;;;;;;;;;;;;;;;;;;4990326;28;19921;-45
2024/01/02 20:47:29;;;;;;;;;;;;;;;;;;4987555;28;19909;-46
2024/01/02 20:49:55;;;;;;;;;;;;;;;;;;4986488;28;20391;-44
2024/01/02 20:52:21;;;;;;;;;;;;;;;;;;4981606;28;19960;-42
2024/01/02 20:54:47;;;;;;;;;;;;;;;;;;4986002;28;19937;-43
2024/01/02 20:57:13;;;;;;;;;;;;;;;;;;4985206;28;19926;-43
2024/01/02 20:59:42;;;;;;;;;;;;;;;;;;5001066;28;20223;-43
2024/01/02 21:02:10;;;;;;;;;;;;;;;;;;4984865;28;19954;-44
2024/01/02 21:04:36;;;;;;;;;;;;;;;;;;4984062;28;20361;-43
2024/01/02 21:07:02;;;;;;;;;;;;;;;;;;4985246;28;20305;-44
2024/01/02 21:09:28;;;;;;;;;;;;;;;;;;4985077;28;20343;-43
2024/01/02 21:11:54;;;;;;;;;;;;;;;;;;4984637;28;19914;-45
2024/01/02 21:14:20;;;;;;;;;;;;;;;;;;4985095;28;19922;-45
2024/01/02 21:16:46;;;;;;;;;;;;;;;;;;4984851;28;20165;-45
2024/01/02 21:19:11;;;;;;;;;;;;;;;;;;4983426;28;20005;-44
2024/01/02 21:21:43;;;;;;;;;;;;;;;;;;4992217;28;19913;-44
2024/01/02 21:24:08;;;;;;;;;;;;;;;;;;5004415;28;19909;-45
2024/01/02 21:26:34;;;;;;;;;;;;;;;;;;5001551;28;19985;-45
2024/01/02 21:29:00;;;;;;;;;;;;;;;;;;4982428;28;19929;-44
2024/01/02 21:31:26;;;;;;;;;;;;;;;;;;4985652;28;20313;-44
2024/01/02 21:33:53;;;;;;;;;;;;;;;;;;4998096;28;19914;-43
2024/01/02 21:36:18;;;;;;;;;;;;;;;;;;4984004;28;19998;-44
2024/01/02 21:38:44;;;;;;;;;;;;;;;;;;5004563;28;19933;-45
2024/01/02 21:41:10;;;;;;;;;;;;;;;;;;4986344;28;20052;-46
2024/01/02 21:43:36;;;;;;;;;;;;;;;;;;4987209;28;19914;-45
2024/01/02 21:46:02;;;;;;;;;;;;;;;;;;4988564;28;20430;-43
2024/01/02 21:48:28;;;;;;;;;;;;;;;;;;4979466;28;19920;-47
2024/01/02 21:50:54;;;;;;;;;;;;;;;;;;4988648;28;20688;-44
2024/01/02 21:53:20;;;;;;;;;;;;;;;;;;4989255;28;19940;-46
2024/01/02 21:55:46;;;;;;;;;;;;;;;;;;4989185;28;20203;-45
2024/01/02 21:58:12;;;;;;;;;;;;;;;;;;4987614;28;19918;-45
2024/01/02 22:00:38;;;;;;;;;;;;;;;;;;4990758;28;20296;-46
2024/01/02 22:03:04;;;;;;;;;;;;;;;;;;4991925;28;19965;-44
2024/01/02 22:05:30;;;;;;;;;;;;;;;;;;4987609;28;19917;-44
2024/01/02 22:07:58;;;;;;;;;;;;;;;;;;4989218;28;20000;-45
2024/01/02 22:10:23;;;;;;;;;;;;;;;;;;4998174;28;19960;-44
2024/01/02 22:12:49;;;;;;;;;;;;;;;;;;5009320;28;20564;-44
2024/01/02 22:15:15;;;;;;;;;;;;;;;;;;5009931;28;19913;-45
2024/01/02 22:17:42;;;;;;;;;;;;;;;;;;4989544;28;20603;-44
2024/01/02 22:20:08;;;;;;;;;;;;;;;;;;4989713;28;19949;-44
2024/01/02 22:22:34;;;;;;;;;;;;;;;;;;4989721;28;19968;-47
2024/01/02 22:24:59;;;;;;;;;;;;;;;;;;4990240;28;19917;-45
2024/01/02 22:27:25;;;;;;;;;;;;;;;;;;5004804;28;19914;-44
2024/01/02 22:29:51;;;;;;;;;;;;;;;;;;5008225;28;20068;-44
2024/01/02 22:32:17;;;;;;;;;;;;;;;;;;5009114;28;19914;-46
2024/01/02 22:34:43;;;;;;;;;;;;;;;;;;5008763;28;19967;-45
2024/01/02 22:37:09;;;;;;;;;;;;;;;;;;5008383;28;19913;-46